Terminal Aerodrome Forecast
Issued by NWS

Home | Current Version | Previous Version | Text Only | Print | Product List | Glossary Off
Versions: 1 2 3 4 5 6 7 8 9 10 11 12 13 14

000
FTUS43 KMPX 010520
TAFRWF
TAF
KRWF 010520Z 0106/0206 15010KT P6SM SCT250
     FM010900 17010KT P6SM -RA SCT050 OVC070
     FM011100 22007KT P6SM VCSH SCT050 SCT090
     FM011300 20009KT P6SM SCT080
     FM011900 31008KT P6SM FEW100=

USA.gov is the U.S. government's official web portal to all federal, state and local government web resources and services.